sensor_id;sensor_type;location;lat;lon;timestamp;pressure;altitude;pressure_sealevel;temperature;humidity
62164;BME280;48149;51.132;7.178;2023-05-25T00:01:56;99486.81;;;22.07;44.25
62164;BME280;48149;51.132;7.178;2023-05-25T00:04:22;99481.16;;;22.54;42.75
62164;BME280;48149;51.132;7.178;2023-05-25T00:06:51;99478.16;;;22.96;41.76
62164;BME280;48149;51.132;7.178;2023-05-25T00:09:16;99478.53;;;21.98;43.01
62164;BME280;48149;51.132;7.178;2023-05-25T00:11:41;99484.28;;;21.40;45.99
62164;BME280;48149;51.132;7.178;2023-05-25T00:14:06;99487.41;;;21.16;46.82
62164;BME280;48149;51.132;7.178;2023-05-25T00:16:32;99480.09;;;20.97;47.35
62164;BME280;48149;51.132;7.178;2023-05-25T00:19:01;99480.31;;;20.90;48.24
62164;BME280;48149;51.132;7.178;2023-05-25T00:21:27;99481.78;;;21.13;46.97
62164;BME280;48149;51.132;7.178;2023-05-25T00:23:52;99484.09;;;20.99;48.07
62164;BME280;48149;51.132;7.178;2023-05-25T00:26:18;99478.88;;;21.19;47.37
62164;BME280;48149;51.132;7.178;2023-05-25T00:28:43;99486.44;;;21.48;45.88
62164;BME280;48149;51.132;7.178;2023-05-25T00:31:08;99478.69;;;20.84;47.37
62164;BME280;48149;51.132;7.178;2023-05-25T00:33:34;99480.25;;;21.32;46.36
62164;BME280;48149;51.132;7.178;2023-05-25T00:35:59;99472.28;;;20.75;48.84
62164;BME280;48149;51.132;7.178;2023-05-25T00:38:24;99476.97;;;22.02;45.20
62164;BME280;48149;51.132;7.178;2023-05-25T00:40:53;99474.00;;;22.14;45.06
62164;BME280;48149;51.132;7.178;2023-05-25T00:43:19;99479.72;;;21.30;45.11
62164;BME280;48149;51.132;7.178;2023-05-25T00:45:44;99484.59;;;20.96;47.90
62164;BME280;48149;51.132;7.178;2023-05-25T00:48:10;99475.28;;;21.61;45.92
62164;BME280;48149;51.132;7.178;2023-05-25T00:50:37;99477.75;;;21.98;44.64
62164;BME280;48149;51.132;7.178;2023-05-25T00:53:03;99482.56;;;22.06;44.95
62164;BME280;48149;51.132;7.178;2023-05-25T00:55:28;99481.59;;;21.35;45.86
62164;BME280;48149;51.132;7.178;2023-05-25T00:57:55;99475.19;;;21.25;46.67
62164;BME280;48149;51.132;7.178;2023-05-25T01:00:22;99480.09;;;20.50;47.39
62164;BME280;48149;51.132;7.178;2023-05-25T01:02:47;99474.28;;;21.05;47.27
62164;BME280;48149;51.132;7.178;2023-05-25T01:05:16;99478.03;;;20.62;49.28
62164;BME280;48149;51.132;7.178;2023-05-25T01:07:45;99480.19;;;21.12;48.77
62164;BME280;48149;51.132;7.178;2023-05-25T01:10:10;99476.34;;;21.55;46.08
62164;BME280;48149;51.132;7.178;2023-05-25T01:12:38;99478.47;;;21.63;46.36
62164;BME280;48149;51.132;7.178;2023-05-25T01:15:05;99481.63;;;21.45;46.50
62164;BME280;48149;51.132;7.178;2023-05-25T01:17:31;99472.38;;;21.00;47.54
62164;BME280;48149;51.132;7.178;2023-05-25T01:19:56;99480.22;;;20.70;48.38
62164;BME280;48149;51.132;7.178;2023-05-25T01:25:08;99477.06;;;21.40;46.04
62164;BME280;48149;51.132;7.178;2023-05-25T01:27:45;99481.59;;;21.30;46.23
62164;BME280;48149;51.132;7.178;2023-05-25T01:30:12;99477.66;;;21.57;46.56
62164;BME280;48149;51.132;7.178;2023-05-25T01:32:37;99476.06;;;21.51;45.58
62164;BME280;48149;51.132;7.178;2023-05-25T01:35:03;99477.41;;;21.59;45.56
62164;BME280;48149;51.132;7.178;2023-05-25T01:37:28;99474.13;;;21.26;45.90
62164;BME280;48149;51.132;7.178;2023-05-25T01:39:55;99480.59;;;21.51;46.08
62164;BME280;48149;51.132;7.178;2023-05-25T01:42:20;99479.66;;;21.15;46.05
62164;BME280;48149;51.132;7.178;2023-05-25T01:44:45;99484.59;;;20.91;48.31
62164;BME280;48149;51.132;7.178;2023-05-25T01:47:15;99487.88;;;20.61;48.14
62164;BME280;48149;51.132;7.178;2023-05-25T01:49:55;99483.88;;;20.59;48.71
62164;BME280;48149;51.132;7.178;2023-05-25T01:54:50;99487.16;;;20.29;50.03
62164;BME280;48149;51.132;7.178;2023-05-25T01:57:17;99491.31;;;20.20;50.61
62164;BME280;48149;51.132;7.178;2023-05-25T01:59:44;99487.44;;;19.74;53.24
62164;BME280;48149;51.132;7.178;2023-05-25T02:02:10;99482.31;;;19.94;52.01
62164;BME280;48149;51.132;7.178;2023-05-25T02:04:36;99481.22;;;20.59;50.89
62164;BME280;48149;51.132;7.178;2023-05-25T02:07:02;99488.22;;;20.75;48.99
62164;BME280;48149;51.132;7.178;2023-05-25T02:09:27;99485.81;;;21.20;47.54
62164;BME280;48149;51.132;7.178;2023-05-25T02:11:53;99487.91;;;21.13;47.56
62164;BME280;48149;51.132;7.178;2023-05-25T02:14:18;99484.97;;;19.94;50.95
62164;BME280;48149;51.132;7.178;2023-05-25T02:16:43;99481.41;;;20.15;51.81
62164;BME280;48149;51.132;7.178;2023-05-25T02:19:10;99487.31;;;21.01;48.02
62164;BME280;48149;51.132;7.178;2023-05-25T02:21:36;99483.44;;;20.72;48.39
62164;BME280;48149;51.132;7.178;2023-05-25T02:24:02;99483.84;;;20.54;49.47
62164;BME280;48149;51.132;7.178;2023-05-25T02:26:27;99479.88;;;20.19;51.39
62164;BME280;48149;51.132;7.178;2023-05-25T02:28:52;99486.75;;;20.47;50.35
62164;BME280;48149;51.132;7.178;2023-05-25T02:31:18;99484.53;;;20.39;51.65
62164;BME280;48149;51.132;7.178;2023-05-25T02:33:43;99475.81;;;20.44;50.68
62164;BME280;48149;51.132;7.178;2023-05-25T02:36:08;99473.88;;;20.76;49.25
62164;BME280;48149;51.132;7.178;2023-05-25T02:38:33;99474.97;;;20.38;50.42
62164;BME280;48149;51.132;7.178;2023-05-25T02:40:58;99472.63;;;19.83;52.24
62164;BME280;48149;51.132;7.178;2023-05-25T02:43:24;99481.88;;;20.81;49.48
62164;BME280;48149;51.132;7.178;2023-05-25T02:45:49;99476.22;;;21.19;48.32
62164;BME280;48149;51.132;7.178;2023-05-25T02:48:14;99480.13;;;21.07;47.37
62164;BME280;48149;51.132;7.178;2023-05-25T02:50:40;99485.91;;;20.42;49.98
62164;BME280;48149;51.132;7.178;2023-05-25T02:53:05;99485.50;;;19.96;52.90
62164;BME280;48149;51.132;7.178;2023-05-25T02:55:30;99490.31;;;19.99;53.82
62164;BME280;48149;51.132;7.178;2023-05-25T02:57:55;99486.44;;;20.12;52.57
62164;BME280;48149;51.132;7.178;2023-05-25T03:00:20;99491.38;;;19.98;51.61
62164;BME280;48149;51.132;7.178;2023-05-25T03:02:46;99482.66;;;19.76;51.32
62164;BME280;48149;51.132;7.178;2023-05-25T03:05:12;99494.50;;;20.22;51.87
62164;BME280;48149;51.132;7.178;2023-05-25T03:07:38;99482.66;;;20.77;49.59
62164;BME280;48149;51.132;7.178;2023-05-25T03:10:03;99479.34;;;20.54;50.01
62164;BME280;48149;51.132;7.178;2023-05-25T03:12:28;99483.03;;;20.48;51.18
62164;BME280;48149;51.132;7.178;2023-05-25T03:14:53;99484.25;;;21.30;47.27
62164;BME280;48149;51.132;7.178;2023-05-25T03:17:19;99482.72;;;21.49;47.65
62164;BME280;48149;51.132;7.178;2023-05-25T03:19:44;99489.44;;;21.71;46.56
62164;BME280;48149;51.132;7.178;2023-05-25T03:22:10;99490.63;;;21.23;49.46
62164;BME280;48149;51.132;7.178;2023-05-25T03:24:35;99490.91;;;20.80;49.22
62164;BME280;48149;51.132;7.178;2023-05-25T03:27:00;99496.41;;;22.68;44.60
62164;BME280;48149;51.132;7.178;2023-05-25T03:29:25;99499.31;;;22.57;44.34
62164;BME280;48149;51.132;7.178;2023-05-25T03:31:51;99494.78;;;22.57;43.60
62164;BME280;48149;51.132;7.178;2023-05-25T03:34:16;99495.06;;;22.00;45.32
62164;BME280;48149;51.132;7.178;2023-05-25T03:36:42;99499.94;;;21.26;46.88
62164;BME280;48149;51.132;7.178;2023-05-25T03:39:10;99494.00;;;22.06;46.48
62164;BME280;48149;51.132;7.178;2023-05-25T03:41:35;99494.88;;;21.24;48.32
62164;BME280;48149;51.132;7.178;2023-05-25T03:44:01;99496.59;;;21.61;46.89
62164;BME280;48149;51.132;7.178;2023-05-25T03:46:26;99510.66;;;21.36;47.55
62164;BME280;48149;51.132;7.178;2023-05-25T03:48:52;99508.91;;;21.05;49.41
62164;BME280;48149;51.132;7.178;2023-05-25T03:51:17;99503.59;;;20.58;49.80
62164;BME280;48149;51.132;7.178;2023-05-25T03:53:43;99514.41;;;20.93;50.07
62164;BME280;48149;51.132;7.178;2023-05-25T03:56:08;99507.28;;;21.71;47.84
62164;BME280;48149;51.132;7.178;2023-05-25T03:58:33;99513.06;;;21.48;47.08
62164;BME280;48149;51.132;7.178;2023-05-25T04:00:58;99510.53;;;22.03;46.04
62164;BME280;48149;51.132;7.178;2023-05-25T04:03:24;99513.63;;;21.55;47.19
62164;BME280;48149;51.132;7.178;2023-05-25T04:05:49;99523.53;;;21.69;47.04
62164;BME280;48149;51.132;7.178;2023-05-25T04:08:14;99521.78;;;21.28;47.70
62164;BME280;48149;51.132;7.178;2023-05-25T04:10:46;99537.94;;;21.78;46.90
62164;BME280;48149;51.132;7.178;2023-05-25T04:13:12;99532.13;;;21.92;46.11
62164;BME280;48149;51.132;7.178;2023-05-25T04:15:37;99537.16;;;21.88;45.76
62164;BME280;48149;51.132;7.178;2023-05-25T04:18:02;99535.88;;;22.11;46.83
62164;BME280;48149;51.132;7.178;2023-05-25T04:20:28;99540.84;;;21.67;47.01
62164;BME280;48149;51.132;7.178;2023-05-25T04:22:53;99533.63;;;21.57;46.18
62164;BME280;48149;51.132;7.178;2023-05-25T04:25:20;99543.69;;;20.93;48.67
62164;BME280;48149;51.132;7.178;2023-05-25T04:27:45;99548.41;;;21.95;46.62
62164;BME280;48149;51.132;7.178;2023-05-25T04:30:10;99535.44;;;21.47;46.88
62164;BME280;48149;51.132;7.178;2023-05-25T04:32:36;99539.91;;;21.21;48.93
62164;BME280;48149;51.132;7.178;2023-05-25T04:35:01;99547.69;;;21.43;48.09
62164;BME280;48149;51.132;7.178;2023-05-25T04:37:27;99543.31;;;21.89;46.91
62164;BME280;48149;51.132;7.178;2023-05-25T04:39:53;99551.75;;;21.60;47.27
62164;BME280;48149;51.132;7.178;2023-05-25T04:42:18;99561.75;;;22.05;46.14
62164;BME280;48149;51.132;7.178;2023-05-25T04:44:43;99559.91;;;22.46;45.93
62164;BME280;48149;51.132;7.178;2023-05-25T04:47:08;99554.81;;;22.34;46.35
62164;BME280;48149;51.132;7.178;2023-05-25T04:49:34;99563.44;;;23.51;42.88
62164;BME280;48149;51.132;7.178;2023-05-25T04:52:00;99559.91;;;22.46;44.59
62164;BME280;48149;51.132;7.178;2023-05-25T04:54:25;99558.81;;;22.47;45.47
62164;BME280;48149;51.132;7.178;2023-05-25T04:56:50;99562.84;;;22.29;46.58
62164;BME280;48149;51.132;7.178;2023-05-25T04:59:16;99563.59;;;22.96;44.90
62164;BME280;48149;51.132;7.178;2023-05-25T05:01:41;99563.09;;;22.23;44.95
62164;BME280;48149;51.132;7.178;2023-05-25T05:04:08;99561.88;;;21.63;48.25
62164;BME280;48149;51.132;7.178;2023-05-25T05:06:33;99568.97;;;22.15;46.92
62164;BME280;48149;51.132;7.178;2023-05-25T05:08:59;99569.09;;;21.68;47.68
62164;BME280;48149;51.132;7.178;2023-05-25T05:11:24;99564.25;;;21.60;48.64
62164;BME280;48149;51.132;7.178;2023-05-25T05:13:49;99569.38;;;21.09;50.38
62164;BME280;48149;51.132;7.178;2023-05-25T05:16:14;99577.34;;;21.61;49.04
62164;BME280;48149;51.132;7.178;2023-05-25T05:18:40;99576.72;;;22.37;47.48
62164;BME280;48149;51.132;7.178;2023-05-25T05:21:05;99579.38;;;22.47;45.92
62164;BME280;48149;51.132;7.178;2023-05-25T05:23:30;99583.06;;;23.16;44.86
62164;BME280;48149;51.132;7.178;2023-05-25T05:25:57;99588.19;;;22.27;47.53
62164;BME280;48149;51.132;7.178;2023-05-25T05:28:23;99584.66;;;23.17;44.34
62164;BME280;48149;51.132;7.178;2023-05-25T05:30:51;99587.28;;;23.97;43.14
62164;BME280;48149;51.132;7.178;2023-05-25T05:33:16;99590.50;;;23.24;44.28
62164;BME280;48149;51.132;7.178;2023-05-25T05:35:42;99594.03;;;23.00;45.52
62164;BME280;48149;51.132;7.178;2023-05-25T05:38:07;99593.25;;;22.79;46.31
62164;BME280;48149;51.132;7.178;2023-05-25T05:40:33;99601.69;;;23.47;45.32
62164;BME280;48149;51.132;7.178;2023-05-25T05:42:58;99607.31;;;23.40;44.81
62164;BME280;48149;51.132;7.178;2023-05-25T05:45:23;99604.06;;;23.53;45.24
62164;BME280;48149;51.132;7.178;2023-05-25T05:47:49;99604.19;;;22.93;46.02
62164;BME280;48149;51.132;7.178;2023-05-25T05:50:14;99607.94;;;23.81;43.49
62164;BME280;48149;51.132;7.178;2023-05-25T05:52:39;99607.88;;;23.32;45.49
62164;BME280;48149;51.132;7.178;2023-05-25T05:55:05;99609.25;;;22.64;47.84
62164;BME280;48149;51.132;7.178;2023-05-25T05:57:31;99605.03;;;22.68;47.16
62164;BME280;48149;51.132;7.178;2023-05-25T05:59:56;99610.69;;;23.61;44.70
62164;BME280;48149;51.132;7.178;2023-05-25T06:02:22;99615.19;;;22.66;46.29
62164;BME280;48149;51.132;7.178;2023-05-25T06:04:47;99620.19;;;22.32;47.62
62164;BME280;48149;51.132;7.178;2023-05-25T06:07:12;99619.91;;;23.94;44.16
62164;BME280;48149;51.132;7.178;2023-05-25T06:09:37;99615.84;;;24.79;43.15
62164;BME280;48149;51.132;7.178;2023-05-25T06:12:03;99612.31;;;24.55;42.78
62164;BME280;48149;51.132;7.178;2023-05-25T06:14:28;99612.19;;;25.27;41.32
62164;BME280;48149;51.132;7.178;2023-05-25T06:16:53;99621.13;;;24.21;43.62
62164;BME280;48149;51.132;7.178;2023-05-25T06:19:18;99622.09;;;24.35;43.57
62164;BME280;48149;51.132;7.178;2023-05-25T06:21:44;99625.41;;;24.56;42.62
62164;BME280;48149;51.132;7.178;2023-05-25T06:24:09;99618.13;;;24.33;44.05
62164;BME280;48149;51.132;7.178;2023-05-25T06:26:34;99619.56;;;24.54;43.57
62164;BME280;48149;51.132;7.178;2023-05-25T06:28:59;99631.50;;;24.28;43.74
62164;BME280;48149;51.132;7.178;2023-05-25T06:31:25;99636.50;;;24.45;43.95
62164;BME280;48149;51.132;7.178;2023-05-25T06:33:51;99626.56;;;25.36;41.64
62164;BME280;48149;51.132;7.178;2023-05-25T06:36:16;99638.34;;;26.25;39.94
62164;BME280;48149;51.132;7.178;2023-05-25T06:38:41;99639.13;;;26.63;39.13
62164;BME280;48149;51.132;7.178;2023-05-25T06:41:06;99639.22;;;25.78;40.01
62164;BME280;48149;51.132;7.178;2023-05-25T06:43:33;99642.88;;;25.40;41.51
62164;BME280;48149;51.132;7.178;2023-05-25T06:45:58;99641.88;;;25.31;41.30
62164;BME280;48149;51.132;7.178;2023-05-25T06:48:24;99642.91;;;25.64;41.32
62164;BME280;48149;51.132;7.178;2023-05-25T06:50:49;99634.22;;;25.24;43.22
62164;BME280;48149;51.132;7.178;2023-05-25T06:53:14;99635.56;;;25.69;40.63
62164;BME280;48149;51.132;7.178;2023-05-25T06:55:41;99649.72;;;23.72;44.57
62164;BME280;48149;51.132;7.178;2023-05-25T06:58:06;99653.47;;;23.61;46.84
62164;BME280;48149;51.132;7.178;2023-05-25T07:00:31;99651.50;;;24.40;44.40
62164;BME280;48149;51.132;7.178;2023-05-25T07:02:56;99651.81;;;24.68;43.75
62164;BME280;48149;51.132;7.178;2023-05-25T07:05:21;99655.94;;;25.46;41.54
62164;BME280;48149;51.132;7.178;2023-05-25T07:07:47;99656.72;;;25.23;42.38
62164;BME280;48149;51.132;7.178;2023-05-25T07:10:12;99657.28;;;25.20;42.20
62164;BME280;48149;51.132;7.178;2023-05-25T07:12:37;99654.00;;;24.66;44.07
62164;BME280;48149;51.132;7.178;2023-05-25T07:15:02;99656.03;;;24.79;43.70
62164;BME280;48149;51.132;7.178;2023-05-25T07:17:28;99661.34;;;25.18;42.23
62164;BME280;48149;51.132;7.178;2023-05-25T07:19:53;99666.63;;;24.94;42.64
62164;BME280;48149;51.132;7.178;2023-05-25T07:22:18;99667.47;;;25.18;42.77
62164;BME280;48149;51.132;7.178;2023-05-25T07:24:44;99666.50;;;25.09;42.58
62164;BME280;48149;51.132;7.178;2023-05-25T07:27:09;99675.75;;;24.10;44.68
62164;BME280;48149;51.132;7.178;2023-05-25T07:29:35;99675.75;;;24.93;43.52
62164;BME280;48149;51.132;7.178;2023-05-25T07:32:00;99671.25;;;25.70;42.67
62164;BME280;48149;51.132;7.178;2023-05-25T07:34:25;99675.41;;;26.61;40.12
62164;BME280;48149;51.132;7.178;2023-05-25T07:36:51;99680.16;;;26.31;41.39
62164;BME280;48149;51.132;7.178;2023-05-25T07:39:16;99676.81;;;23.05;46.49
62164;BME280;48149;51.132;7.178;2023-05-25T07:41:41;99675.50;;;22.72;49.74
62164;BME280;48149;51.132;7.178;2023-05-25T07:44:06;99679.47;;;23.40;48.47
62164;BME280;48149;51.132;7.178;2023-05-25T07:46:31;99680.59;;;25.48;43.87
62164;BME280;48149;51.132;7.178;2023-05-25T07:48:58;99674.34;;;25.29;42.21
62164;BME280;48149;51.132;7.178;2023-05-25T07:51:24;99674.34;;;26.43;39.63
62164;BME280;48149;51.132;7.178;2023-05-25T07:53:51;99674.56;;;26.46;39.55
62164;BME280;48149;51.132;7.178;2023-05-25T07:56:17;99673.22;;;26.81;37.66
62164;BME280;48149;51.132;7.178;2023-05-25T07:58:43;99670.78;;;25.63;38.71
62164;BME280;48149;51.132;7.178;2023-05-25T08:01:08;99685.72;;;25.45;40.07
62164;BME280;48149;51.132;7.178;2023-05-25T08:03:33;99677.91;;;25.72;39.97
62164;BME280;48149;51.132;7.178;2023-05-25T08:05:58;99674.63;;;25.57;40.51
62164;BME280;48149;51.132;7.178;2023-05-25T08:08:24;99683.13;;;23.79;43.00
62164;BME280;48149;51.132;7.178;2023-05-25T08:10:49;99680.88;;;26.18;38.75
62164;BME280;48149;51.132;7.178;2023-05-25T08:13:14;99679.78;;;24.96;41.09
62164;BME280;48149;51.132;7.178;2023-05-25T08:15:40;99685.44;;;23.96;44.06
62164;BME280;48149;51.132;7.178;2023-05-25T08:18:05;99684.84;;;24.58;42.73
62164;BME280;48149;51.132;7.178;2023-05-25T08:20:30;99675.94;;;26.25;39.28
62164;BME280;48149;51.132;7.178;2023-05-25T08:22:56;99684.34;;;25.53;39.00
62164;BME280;48149;51.132;7.178;2023-05-25T08:25:23;99684.09;;;25.44;40.56
62164;BME280;48149;51.132;7.178;2023-05-25T08:27:48;99689.56;;;26.47;38.00
62164;BME280;48149;51.132;7.178;2023-05-25T08:30:13;99681.06;;;27.10;37.47
62164;BME280;48149;51.132;7.178;2023-05-25T08:32:38;99686.38;;;27.29;37.97
62164;BME280;48149;51.132;7.178;2023-05-25T08:35:04;99691.25;;;27.27;36.69
62164;BME280;48149;51.132;7.178;2023-05-25T08:37:32;99688.38;;;26.16;38.23
62164;BME280;48149;51.132;7.178;2023-05-25T08:39:58;99688.88;;;26.93;36.79
62164;BME280;48149;51.132;7.178;2023-05-25T08:42:26;99690.94;;;26.82;37.09
62164;BME280;48149;51.132;7.178;2023-05-25T08:44:51;99699.16;;;26.54;38.47
62164;BME280;48149;51.132;7.178;2023-05-25T08:47:16;99691.53;;;28.34;35.47
62164;BME280;48149;51.132;7.178;2023-05-25T08:49:45;99688.91;;;27.52;35.40
62164;BME280;48149;51.132;7.178;2023-05-25T08:52:12;99695.59;;;27.09;36.13
62164;BME280;48149;51.132;7.178;2023-05-25T08:54:43;99690.81;;;27.52;36.26
62164;BME280;48149;51.132;7.178;2023-05-25T08:59:47;99696.13;;;26.92;35.59
62164;BME280;48149;51.132;7.178;2023-05-25T09:04:41;99691.00;;;28.10;34.15
62164;BME280;48149;51.132;7.178;2023-05-25T09:07:07;99696.91;;;27.12;36.73
62164;BME280;48149;51.132;7.178;2023-05-25T09:09:32;99693.22;;;27.67;36.19
62164;BME280;48149;51.132;7.178;2023-05-25T09:12:00;99695.31;;;28.11;35.04
62164;BME280;48149;51.132;7.178;2023-05-25T09:14:26;99686.00;;;29.20;33.14
62164;BME280;48149;51.132;7.178;2023-05-25T09:16:51;99689.22;;;28.77;33.75
62164;BME280;48149;51.132;7.178;2023-05-25T09:19:16;99688.66;;;28.31;34.25
62164;BME280;48149;51.132;7.178;2023-05-25T09:21:42;99692.47;;;28.66;35.30
62164;BME280;48149;51.132;7.178;2023-05-25T09:24:08;99699.38;;;24.81;40.46
62164;BME280;48149;51.132;7.178;2023-05-25T09:26:33;99699.72;;;26.32;39.15
62164;BME280;48149;51.132;7.178;2023-05-25T09:28:59;99700.94;;;25.55;39.54
62164;BME280;48149;51.132;7.178;2023-05-25T09:31:24;99693.53;;;27.20;38.48
62164;BME280;48149;51.132;7.178;2023-05-25T09:33:50;99691.47;;;29.06;34.50
62164;BME280;48149;51.132;7.178;2023-05-25T09:36:19;99701.25;;;28.71;35.26
62164;BME280;48149;51.132;7.178;2023-05-25T09:38:46;99700.53;;;28.66;35.42
62164;BME280;48149;51.132;7.178;2023-05-25T09:41:12;99702.94;;;28.67;33.64
62164;BME280;48149;51.132;7.178;2023-05-25T09:43:37;99709.75;;;27.61;36.95
62164;BME280;48149;51.132;7.178;2023-05-25T09:46:02;99700.38;;;27.72;34.97
62164;BME280;48149;51.132;7.178;2023-05-25T09:48:27;99698.59;;;29.02;33.99
62164;BME280;48149;51.132;7.178;2023-05-25T09:50:53;99707.66;;;28.48;35.60
62164;BME280;48149;51.132;7.178;2023-05-25T09:53:18;99705.47;;;30.78;30.47
62164;BME280;48149;51.132;7.178;2023-05-25T09:55:46;99704.16;;;33.18;27.81
62164;BME280;48149;51.132;7.178;2023-05-25T09:58:12;99711.66;;;33.00;27.57
62164;BME280;48149;51.132;7.178;2023-05-25T10:00:37;99703.75;;;34.25;27.31
62164;BME280;48149;51.132;7.178;2023-05-25T10:03:02;99709.88;;;32.01;27.69
62164;BME280;48149;51.132;7.178;2023-05-25T10:05:28;99695.28;;;27.84;35.21
62164;BME280;48149;51.132;7.178;2023-05-25T10:07:53;99712.44;;;28.15;35.43
62164;BME280;48149;51.132;7.178;2023-05-25T10:10:19;99719.13;;;31.07;31.78
62164;BME280;48149;51.132;7.178;2023-05-25T10:12:45;99714.81;;;27.48;34.37
62164;BME280;48149;51.132;7.178;2023-05-25T10:15:14;99718.22;;;28.22;34.89
62164;BME280;48149;51.132;7.178;2023-05-25T10:17:47;99719.91;;;30.30;31.00
62164;BME280;48149;51.132;7.178;2023-05-25T10:20:15;99730.28;;;28.60;32.10
62164;BME280;48149;51.132;7.178;2023-05-25T10:22:56;99724.13;;;28.46;34.40
62164;BME280;48149;51.132;7.178;2023-05-25T10:25:31;99720.75;;;31.46;29.40
62164;BME280;48149;51.132;7.178;2023-05-25T10:27:59;99714.44;;;29.87;32.12
62164;BME280;48149;51.132;7.178;2023-05-25T10:30:25;99739.47;;;32.56;28.83
62164;BME280;48149;51.132;7.178;2023-05-25T10:32:51;99727.63;;;33.47;27.98
62164;BME280;48149;51.132;7.178;2023-05-25T10:35:18;99723.16;;;31.47;29.27
62164;BME280;48149;51.132;7.178;2023-05-25T10:37:43;99737.22;;;29.20;32.68
62164;BME280;48149;51.132;7.178;2023-05-25T10:40:09;99731.06;;;27.57;34.59
62164;BME280;48149;51.132;7.178;2023-05-25T10:42:35;99727.84;;;29.39;33.79
62164;BME280;48149;51.132;7.178;2023-05-25T10:45:02;99738.53;;;29.00;33.91
62164;BME280;48149;51.132;7.178;2023-05-25T10:47:27;99746.34;;;30.59;30.44
62164;BME280;48149;51.132;7.178;2023-05-25T10:49:54;99735.13;;;31.55;30.14
62164;BME280;48149;51.132;7.178;2023-05-25T10:52:20;99746.09;;;33.08;27.44
62164;BME280;48149;51.132;7.178;2023-05-25T10:54:46;99735.81;;;33.14;27.69
62164;BME280;48149;51.132;7.178;2023-05-25T10:57:12;99737.34;;;29.68;32.30
62164;BME280;48149;51.132;7.178;2023-05-25T10:59:41;99738.81;;;29.74;31.15
62164;BME280;48149;51.132;7.178;2023-05-25T11:02:09;99737.53;;;30.19;30.82
62164;BME280;48149;51.132;7.178;2023-05-25T11:04:34;99741.75;;;30.51;30.43
62164;BME280;48149;51.132;7.178;2023-05-25T11:09:27;99738.13;;;29.59;30.99
62164;BME280;48149;51.132;7.178;2023-05-25T11:17:10;99742.84;;;31.74;29.62
62164;BME280;48149;51.132;7.178;2023-05-25T11:19:49;99736.44;;;29.81;30.56
62164;BME280;48149;51.132;7.178;2023-05-25T11:22:22;99745.34;;;29.81;32.14
62164;BME280;48149;51.132;7.178;2023-05-25T11:24:54;99742.84;;;31.10;30.62
62164;BME280;48149;51.132;7.178;2023-05-25T11:27:21;99741.59;;;29.91;31.48
62164;BME280;48149;51.132;7.178;2023-05-25T11:29:51;99738.75;;;29.96;30.80
62164;BME280;48149;51.132;7.178;2023-05-25T11:32:16;99746.88;;;29.65;31.65
62164;BME280;48149;51.132;7.178;2023-05-25T11:34:42;99754.78;;;29.31;32.14
62164;BME280;48149;51.132;7.178;2023-05-25T11:37:16;99747.28;;;30.46;30.35
62164;BME280;48149;51.132;7.178;2023-05-25T11:39:45;99752.41;;;28.35;32.78
62164;BME280;48149;51.132;7.178;2023-05-25T11:42:11;99742.13;;;26.54;36.52
62164;BME280;48149;51.132;7.178;2023-05-25T11:44:39;99741.59;;;26.51;35.38
62164;BME280;48149;51.132;7.178;2023-05-25T11:47:06;99734.28;;;26.94;35.89
62164;BME280;48149;51.132;7.178;2023-05-25T11:49:37;99732.47;;;27.36;35.00
62164;BME280;48149;51.132;7.178;2023-05-25T11:52:04;99744.34;;;27.67;35.49
62164;BME280;48149;51.132;7.178;2023-05-25T11:54:33;99745.31;;;28.39;33.71
62164;BME280;48149;51.132;7.178;2023-05-25T11:56:58;99743.78;;;25.83;38.73
62164;BME280;48149;51.132;7.178;2023-05-25T11:59:27;99739.63;;;26.57;36.13
62164;BME280;48149;51.132;7.178;2023-05-25T12:02:00;99746.56;;;27.14;36.00
62164;BME280;48149;51.132;7.178;2023-05-25T12:04:25;99747.72;;;28.63;32.79
62164;BME280;48149;51.132;7.178;2023-05-25T12:06:51;99739.06;;;28.30;30.98
62164;BME280;48149;51.132;7.178;2023-05-25T12:09:19;99729.69;;;25.73;33.93
62164;BME280;48149;51.132;7.178;2023-05-25T12:11:48;99733.66;;;27.16;33.77
62164;BME280;48149;51.132;7.178;2023-05-25T12:14:13;99738.00;;;30.12;30.90
62164;BME280;48149;51.132;7.178;2023-05-25T12:16:38;99726.81;;;31.60;29.14
62164;BME280;48149;51.132;7.178;2023-05-25T12:19:11;99739.88;;;33.65;26.42
62164;BME280;48149;51.132;7.178;2023-05-25T12:21:37;99728.69;;;33.78;26.62
62164;BME280;48149;51.132;7.178;2023-05-25T12:24:03;99740.38;;;31.81;27.70
62164;BME280;48149;51.132;7.178;2023-05-25T12:26:30;99730.47;;;31.55;28.32
62164;BME280;48149;51.132;7.178;2023-05-25T12:29:05;99730.44;;;31.64;28.61
62164;BME280;48149;51.132;7.178;2023-05-25T12:31:31;99747.63;;;31.04;29.80
62164;BME280;48149;51.132;7.178;2023-05-25T12:34:04;99726.50;;;29.98;30.14
62164;BME280;48149;51.132;7.178;2023-05-25T12:36:39;99738.47;;;32.81;26.99
62164;BME280;48149;51.132;7.178;2023-05-25T12:39:05;99727.88;;;33.90;27.03
62164;BME280;48149;51.132;7.178;2023-05-25T12:41:30;99729.97;;;33.36;25.95
62164;BME280;48149;51.132;7.178;2023-05-25T12:43:56;99717.22;;;34.09;25.64
62164;BME280;48149;51.132;7.178;2023-05-25T12:46:24;99722.69;;;34.49;25.34
62164;BME280;48149;51.132;7.178;2023-05-25T12:48:50;99724.13;;;34.31;24.79
62164;BME280;48149;51.132;7.178;2023-05-25T12:51:15;99718.88;;;34.78;24.39
62164;BME280;48149;51.132;7.178;2023-05-25T12:53:50;99724.69;;;34.76;24.68
62164;BME280;48149;51.132;7.178;2023-05-25T12:56:15;99719.00;;;36.57;23.34
62164;BME280;48149;51.132;7.178;2023-05-25T12:58:40;99712.41;;;35.26;23.84
62164;BME280;48149;51.132;7.178;2023-05-25T13:01:06;99702.28;;;33.79;24.73
62164;BME280;48149;51.132;7.178;2023-05-25T13:03:32;99712.56;;;35.96;23.67
62164;BME280;48149;51.132;7.178;2023-05-25T13:06:01;99713.69;;;36.10;23.54
62164;BME280;48149;51.132;7.178;2023-05-25T13:08:27;99711.34;;;37.96;22.56
62164;BME280;48149;51.132;7.178;2023-05-25T13:10:52;99698.97;;;35.17;24.21
62164;BME280;48149;51.132;7.178;2023-05-25T13:13:17;99688.16;;;35.83;23.21